San Antonio de los Cobres, Argentina
Current Conditions -  °F | °C
As of 5:00 PM on Tuesday 27 Jan 2015 (Local Time) from SASJ Reporting Station
Thunderstorm Thunderstorm  
Wind Chill: 90°   Ceiling: Unl
Heat Index: 92°   Visibility: 6mi
Dew Point: 66°   Wind: 15mph
Humidity: 46%   Direction: 50°NE
Pressure: 29.74"   Gusts: NA
Location:  24.18°S, 66.35°W
Report Text: SASJ 272000Z 05013KT 9999 TS VCSH SCT035FEW045CB 32/19 Q1007
Loading
Personal Weather Stations






























Interactive Weather Map New forecast layout! Learn more

10-Day Weather Forecast

Advertisements
Track Severe Weather on mobile